sensor_id;sensor_type;location;lat;lon;timestamp;P1;durP1;ratioP1;P2;durP2;ratioP2
36449;SDS011;22475;51.390;7.180;2023-03-20T00:00:57;11.02;;;7.43;;
36449;SDS011;22475;51.390;7.180;2023-03-20T00:03:24;10.25;;;6.82;;
36449;SDS011;22475;51.390;7.180;2023-03-20T00:05:51;20.65;;;11.40;;
36449;SDS011;22475;51.390;7.180;2023-03-20T00:08:18;24.85;;;8.75;;
36449;SDS011;22475;51.390;7.180;2023-03-20T00:10:45;25.85;;;10.75;;
36449;SDS011;22475;51.390;7.180;2023-03-20T00:13:13;6.65;;;4.30;;
36449;SDS011;22475;51.390;7.180;2023-03-20T00:15:44;16.23;;;9.52;;
36449;SDS011;22475;51.390;7.180;2023-03-20T00:18:13;14.88;;;7.85;;
36449;SDS011;22475;51.390;7.180;2023-03-20T00:20:44;20.02;;;11.82;;
36449;SDS011;22475;51.390;7.180;2023-03-20T00:23:11;23.10;;;12.38;;
36449;SDS011;22475;51.390;7.180;2023-03-20T00:25:39;15.80;;;9.55;;
36449;SDS011;22475;51.390;7.180;2023-03-20T00:28:21;19.10;;;9.70;;
36449;SDS011;22475;51.390;7.180;2023-03-20T00:31:04;11.27;;;7.13;;
36449;SDS011;22475;51.390;7.180;2023-03-20T00:33:38;7.78;;;5.80;;
36449;SDS011;22475;51.390;7.180;2023-03-20T00:36:06;11.85;;;7.28;;
36449;SDS011;22475;51.390;7.180;2023-03-20T00:38:34;6.63;;;5.60;;
36449;SDS011;22475;51.390;7.180;2023-03-20T00:41:01;9.35;;;5.70;;
36449;SDS011;22475;51.390;7.180;2023-03-20T00:43:28;9.50;;;6.45;;
36449;SDS011;22475;51.390;7.180;2023-03-20T00:45:55;10.23;;;5.88;;
36449;SDS011;22475;51.390;7.180;2023-03-20T00:48:23;6.45;;;5.80;;
36449;SDS011;22475;51.390;7.180;2023-03-20T00:50:50;11.70;;;5.93;;
36449;SDS011;22475;51.390;7.180;2023-03-20T00:53:17;10.07;;;5.88;;
36449;SDS011;22475;51.390;7.180;2023-03-20T00:55:44;8.55;;;6.45;;
36449;SDS011;22475;51.390;7.180;2023-03-20T00:58:10;9.43;;;6.30;;
36449;SDS011;22475;51.390;7.180;2023-03-20T01:00:38;11.65;;;8.35;;
36449;SDS011;22475;51.390;7.180;2023-03-20T01:03:10;10.75;;;6.80;;
36449;SDS011;22475;51.390;7.180;2023-03-20T01:05:41;14.38;;;8.55;;
36449;SDS011;22475;51.390;7.180;2023-03-20T01:08:10;9.13;;;6.72;;
36449;SDS011;22475;51.390;7.180;2023-03-20T01:10:38;12.03;;;7.43;;
36449;SDS011;22475;51.390;7.180;2023-03-20T01:13:05;12.55;;;8.07;;
36449;SDS011;22475;51.390;7.180;2023-03-20T01:15:40;9.73;;;6.32;;
36449;SDS011;22475;51.390;7.180;2023-03-20T01:18:08;7.00;;;5.07;;
36449;SDS011;22475;51.390;7.180;2023-03-20T01:20:37;7.55;;;5.63;;
36449;SDS011;22475;51.390;7.180;2023-03-20T01:23:05;10.77;;;6.80;;
36449;SDS011;22475;51.390;7.180;2023-03-20T01:25:32;8.32;;;7.03;;
36449;SDS011;22475;51.390;7.180;2023-03-20T01:27:59;16.70;;;7.18;;
36449;SDS011;22475;51.390;7.180;2023-03-20T01:30:27;5.90;;;5.03;;
36449;SDS011;22475;51.390;7.180;2023-03-20T01:32:55;10.00;;;5.85;;
36449;SDS011;22475;51.390;7.180;2023-03-20T01:35:23;5.70;;;4.75;;
36449;SDS011;22475;51.390;7.180;2023-03-20T01:37:53;7.20;;;5.63;;
36449;SDS011;22475;51.390;7.180;2023-03-20T01:40:28;6.35;;;5.05;;
36449;SDS011;22475;51.390;7.180;2023-03-20T01:42:58;10.30;;;6.15;;
36449;SDS011;22475;51.390;7.180;2023-03-20T01:45:28;10.68;;;5.28;;
36449;SDS011;22475;51.390;7.180;2023-03-20T01:47:59;6.57;;;5.10;;
36449;SDS011;22475;51.390;7.180;2023-03-20T01:50:29;7.57;;;5.95;;
36449;SDS011;22475;51.390;7.180;2023-03-20T01:52:59;6.50;;;5.05;;
36449;SDS011;22475;51.390;7.180;2023-03-20T01:55:31;4.25;;;3.65;;
36449;SDS011;22475;51.390;7.180;2023-03-20T01:57:59;7.72;;;6.05;;
36449;SDS011;22475;51.390;7.180;2023-03-20T02:00:29;12.20;;;6.32;;
36449;SDS011;22475;51.390;7.180;2023-03-20T02:02:56;6.63;;;4.22;;
36449;SDS011;22475;51.390;7.180;2023-03-20T02:05:23;9.45;;;4.88;;
36449;SDS011;22475;51.390;7.180;2023-03-20T02:07:54;10.07;;;6.55;;
36449;SDS011;22475;51.390;7.180;2023-03-20T02:10:27;7.80;;;5.75;;
36449;SDS011;22475;51.390;7.180;2023-03-20T02:12:56;5.75;;;4.78;;
36449;SDS011;22475;51.390;7.180;2023-03-20T02:15:24;5.03;;;3.67;;
36449;SDS011;22475;51.390;7.180;2023-03-20T02:17:52;5.03;;;4.03;;
36449;SDS011;22475;51.390;7.180;2023-03-20T02:20:25;7.30;;;3.92;;
36449;SDS011;22475;51.390;7.180;2023-03-20T02:26:18;4.75;;;3.75;;
36449;SDS011;22475;51.390;7.180;2023-03-20T02:32:25;3.72;;;3.17;;
36449;SDS011;22475;51.390;7.180;2023-03-20T02:40:53;6.40;;;3.42;;
36449;SDS011;22475;51.390;7.180;2023-03-20T02:43:28;4.38;;;3.58;;
36449;SDS011;22475;51.390;7.180;2023-03-20T02:46:04;4.68;;;3.75;;
36449;SDS011;22475;51.390;7.180;2023-03-20T02:48:38;5.65;;;3.85;;
36449;SDS011;22475;51.390;7.180;2023-03-20T02:51:11;3.72;;;3.42;;
36449;SDS011;22475;51.390;7.180;2023-03-20T02:53:46;3.63;;;3.33;;
36449;SDS011;22475;51.390;7.180;2023-03-20T02:56:20;4.38;;;3.85;;
36449;SDS011;22475;51.390;7.180;2023-03-20T02:58:53;4.25;;;2.80;;
36449;SDS011;22475;51.390;7.180;2023-03-20T03:01:29;5.35;;;3.10;;
36449;SDS011;22475;51.390;7.180;2023-03-20T03:03:59;5.75;;;4.57;;
36449;SDS011;22475;51.390;7.180;2023-03-20T03:06:30;7.20;;;3.55;;
36449;SDS011;22475;51.390;7.180;2023-03-20T03:09:00;5.22;;;3.80;;
36449;SDS011;22475;51.390;7.180;2023-03-20T03:11:33;8.90;;;5.57;;
36449;SDS011;22475;51.390;7.180;2023-03-20T03:14:03;5.05;;;3.67;;
36449;SDS011;22475;51.390;7.180;2023-03-20T03:16:32;6.22;;;3.55;;
36449;SDS011;22475;51.390;7.180;2023-03-20T03:21:32;6.13;;;3.85;;
36449;SDS011;22475;51.390;7.180;2023-03-20T03:24:02;7.70;;;4.75;;
36449;SDS011;22475;51.390;7.180;2023-03-20T03:26:31;5.85;;;3.13;;
36449;SDS011;22475;51.390;7.180;2023-03-20T03:29:03;2.75;;;2.47;;
36449;SDS011;22475;51.390;7.180;2023-03-20T03:31:33;4.15;;;3.22;;
36449;SDS011;22475;51.390;7.180;2023-03-20T03:34:02;4.50;;;3.38;;
36449;SDS011;22475;51.390;7.180;2023-03-20T03:36:34;6.35;;;4.57;;
36449;SDS011;22475;51.390;7.180;2023-03-20T03:39:09;9.65;;;6.50;;
36449;SDS011;22475;51.390;7.180;2023-03-20T03:41:44;3.97;;;3.67;;
36449;SDS011;22475;51.390;7.180;2023-03-20T03:44:15;4.90;;;3.83;;
36449;SDS011;22475;51.390;7.180;2023-03-20T03:46:48;2.92;;;2.53;;
36449;SDS011;22475;51.390;7.180;2023-03-20T03:49:19;3.17;;;2.88;;
36449;SDS011;22475;51.390;7.180;2023-03-20T03:51:49;2.40;;;2.20;;
36449;SDS011;22475;51.390;7.180;2023-03-20T03:54:21;4.47;;;2.78;;
36449;SDS011;22475;51.390;7.180;2023-03-20T03:56:52;5.65;;;3.58;;
36449;SDS011;22475;51.390;7.180;2023-03-20T03:59:22;3.20;;;3.00;;
36449;SDS011;22475;51.390;7.180;2023-03-20T04:01:52;7.38;;;5.45;;
36449;SDS011;22475;51.390;7.180;2023-03-20T04:04:21;14.68;;;7.32;;
36449;SDS011;22475;51.390;7.180;2023-03-20T04:06:50;2.63;;;2.42;;
36449;SDS011;22475;51.390;7.180;2023-03-20T04:09:17;8.00;;;5.20;;
36449;SDS011;22475;51.390;7.180;2023-03-20T04:11:44;4.05;;;2.63;;
36449;SDS011;22475;51.390;7.180;2023-03-20T04:16:43;4.55;;;3.20;;
36449;SDS011;22475;51.390;7.180;2023-03-20T04:19:10;2.70;;;2.13;;
36449;SDS011;22475;51.390;7.180;2023-03-20T04:21:37;3.33;;;3.05;;
36449;SDS011;22475;51.390;7.180;2023-03-20T04:24:04;9.63;;;7.05;;
36449;SDS011;22475;51.390;7.180;2023-03-20T04:26:32;3.63;;;3.33;;
36449;SDS011;22475;51.390;7.180;2023-03-20T04:28:58;6.80;;;3.60;;
36449;SDS011;22475;51.390;7.180;2023-03-20T04:31:27;9.23;;;6.53;;
36449;SDS011;22475;51.390;7.180;2023-03-20T04:33:53;4.55;;;3.47;;
36449;SDS011;22475;51.390;7.180;2023-03-20T04:36:21;3.20;;;2.60;;
36449;SDS011;22475;51.390;7.180;2023-03-20T04:38:47;4.57;;;3.15;;
36449;SDS011;22475;51.390;7.180;2023-03-20T04:41:14;2.88;;;2.58;;
36449;SDS011;22475;51.390;7.180;2023-03-20T04:43:41;2.47;;;2.25;;
36449;SDS011;22475;51.390;7.180;2023-03-20T04:46:08;4.35;;;3.08;;
36449;SDS011;22475;51.390;7.180;2023-03-20T04:48:36;3.72;;;2.95;;
36449;SDS011;22475;51.390;7.180;2023-03-20T04:51:03;7.72;;;4.95;;
36449;SDS011;22475;51.390;7.180;2023-03-20T04:53:30;10.82;;;6.93;;
36449;SDS011;22475;51.390;7.180;2023-03-20T04:55:57;7.53;;;5.10;;
36449;SDS011;22475;51.390;7.180;2023-03-20T04:58:23;4.53;;;3.88;;
36449;SDS011;22475;51.390;7.180;2023-03-20T05:00:50;2.90;;;2.70;;
36449;SDS011;22475;51.390;7.180;2023-03-20T05:03:17;11.35;;;7.47;;
36449;SDS011;22475;51.390;7.180;2023-03-20T05:05:45;4.57;;;2.90;;
36449;SDS011;22475;51.390;7.180;2023-03-20T05:08:11;7.65;;;4.35;;
36449;SDS011;22475;51.390;7.180;2023-03-20T05:10:38;3.33;;;2.95;;
36449;SDS011;22475;51.390;7.180;2023-03-20T05:13:05;8.80;;;5.28;;
36449;SDS011;22475;51.390;7.180;2023-03-20T05:15:32;4.03;;;3.53;;
36449;SDS011;22475;51.390;7.180;2023-03-20T05:17:58;4.35;;;3.47;;
36449;SDS011;22475;51.390;7.180;2023-03-20T05:20:25;3.60;;;3.30;;
36449;SDS011;22475;51.390;7.180;2023-03-20T05:22:54;4.07;;;2.80;;
36449;SDS011;22475;51.390;7.180;2023-03-20T05:25:20;3.85;;;3.45;;
36449;SDS011;22475;51.390;7.180;2023-03-20T05:27:47;3.30;;;3.00;;
36449;SDS011;22475;51.390;7.180;2023-03-20T05:30:14;3.97;;;3.60;;
36449;SDS011;22475;51.390;7.180;2023-03-20T05:32:41;4.22;;;3.17;;
36449;SDS011;22475;51.390;7.180;2023-03-20T05:35:08;4.85;;;3.55;;
36449;SDS011;22475;51.390;7.180;2023-03-20T05:37:36;13.30;;;6.85;;
36449;SDS011;22475;51.390;7.180;2023-03-20T05:40:05;11.73;;;7.47;;
36449;SDS011;22475;51.390;7.180;2023-03-20T05:42:32;14.02;;;8.27;;
36449;SDS011;22475;51.390;7.180;2023-03-20T05:45:00;6.90;;;3.85;;
36449;SDS011;22475;51.390;7.180;2023-03-20T05:47:27;7.05;;;4.20;;
36449;SDS011;22475;51.390;7.180;2023-03-20T05:49:54;4.32;;;3.90;;
36449;SDS011;22475;51.390;7.180;2023-03-20T05:52:21;10.85;;;7.07;;
36449;SDS011;22475;51.390;7.180;2023-03-20T05:54:47;4.55;;;3.80;;
36449;SDS011;22475;51.390;7.180;2023-03-20T05:57:16;3.97;;;3.20;;
36449;SDS011;22475;51.390;7.180;2023-03-20T05:59:43;12.77;;;7.93;;
36449;SDS011;22475;51.390;7.180;2023-03-20T06:02:10;8.73;;;5.75;;
36449;SDS011;22475;51.390;7.180;2023-03-20T06:04:37;8.43;;;5.07;;
36449;SDS011;22475;51.390;7.180;2023-03-20T06:07:04;11.57;;;5.82;;
36449;SDS011;22475;51.390;7.180;2023-03-20T06:09:31;8.90;;;5.40;;
36449;SDS011;22475;51.390;7.180;2023-03-20T06:11:58;4.97;;;3.63;;
36449;SDS011;22475;51.390;7.180;2023-03-20T06:14:26;10.18;;;6.00;;
36449;SDS011;22475;51.390;7.180;2023-03-20T06:16:53;9.07;;;6.15;;
36449;SDS011;22475;51.390;7.180;2023-03-20T06:19:21;6.43;;;4.18;;
36449;SDS011;22475;51.390;7.180;2023-03-20T06:21:48;6.10;;;3.38;;
36449;SDS011;22475;51.390;7.180;2023-03-20T06:24:15;5.82;;;4.55;;
36449;SDS011;22475;51.390;7.180;2023-03-20T06:26:42;7.72;;;4.93;;
36449;SDS011;22475;51.390;7.180;2023-03-20T06:29:09;8.32;;;4.93;;
36449;SDS011;22475;51.390;7.180;2023-03-20T06:31:37;9.68;;;6.90;;
36449;SDS011;22475;51.390;7.180;2023-03-20T06:34:03;5.55;;;4.22;;
36449;SDS011;22475;51.390;7.180;2023-03-20T06:36:30;5.00;;;3.72;;
36449;SDS011;22475;51.390;7.180;2023-03-20T06:38:57;4.55;;;3.85;;
36449;SDS011;22475;51.390;7.180;2023-03-20T06:41:24;7.45;;;4.05;;
36449;SDS011;22475;51.390;7.180;2023-03-20T06:43:50;11.63;;;7.20;;
36449;SDS011;22475;51.390;7.180;2023-03-20T06:46:17;5.13;;;4.68;;
36449;SDS011;22475;51.390;7.180;2023-03-20T06:48:45;4.85;;;4.35;;
36449;SDS011;22475;51.390;7.180;2023-03-20T06:51:12;6.35;;;4.07;;
36449;SDS011;22475;51.390;7.180;2023-03-20T06:53:39;7.20;;;3.67;;
36449;SDS011;22475;51.390;7.180;2023-03-20T06:56:08;6.55;;;5.30;;
36449;SDS011;22475;51.390;7.180;2023-03-20T06:58:35;4.68;;;3.47;;
36449;SDS011;22475;51.390;7.180;2023-03-20T07:01:06;7.43;;;3.97;;
36449;SDS011;22475;51.390;7.180;2023-03-20T07:03:34;5.75;;;3.75;;
36449;SDS011;22475;51.390;7.180;2023-03-20T07:06:02;5.68;;;3.78;;
36449;SDS011;22475;51.390;7.180;2023-03-20T07:08:29;8.07;;;4.97;;
36449;SDS011;22475;51.390;7.180;2023-03-20T07:10:56;11.88;;;6.80;;
36449;SDS011;22475;51.390;7.180;2023-03-20T07:13:22;5.70;;;4.10;;
36449;SDS011;22475;51.390;7.180;2023-03-20T07:15:50;7.00;;;4.32;;
36449;SDS011;22475;51.390;7.180;2023-03-20T07:18:17;6.13;;;3.88;;
36449;SDS011;22475;51.390;7.180;2023-03-20T07:20:44;5.03;;;4.07;;
36449;SDS011;22475;51.390;7.180;2023-03-20T07:23:12;5.00;;;4.20;;
36449;SDS011;22475;51.390;7.180;2023-03-20T07:25:39;5.00;;;4.22;;
36449;SDS011;22475;51.390;7.180;2023-03-20T07:28:05;4.10;;;2.97;;
36449;SDS011;22475;51.390;7.180;2023-03-20T07:30:33;4.15;;;3.70;;
36449;SDS011;22475;51.390;7.180;2023-03-20T07:32:59;5.55;;;4.07;;
36449;SDS011;22475;51.390;7.180;2023-03-20T07:35:26;9.02;;;3.92;;
36449;SDS011;22475;51.390;7.180;2023-03-20T07:37:53;6.50;;;4.20;;
36449;SDS011;22475;51.390;7.180;2023-03-20T07:40:21;4.50;;;3.45;;
36449;SDS011;22475;51.390;7.180;2023-03-20T07:42:48;5.97;;;3.75;;
36449;SDS011;22475;51.390;7.180;2023-03-20T07:45:14;7.22;;;4.68;;
36449;SDS011;22475;51.390;7.180;2023-03-20T07:47:42;7.32;;;4.13;;
36449;SDS011;22475;51.390;7.180;2023-03-20T07:50:12;5.13;;;3.67;;
36449;SDS011;22475;51.390;7.180;2023-03-20T07:52:39;3.75;;;3.40;;
36449;SDS011;22475;51.390;7.180;2023-03-20T07:55:06;5.03;;;3.35;;
36449;SDS011;22475;51.390;7.180;2023-03-20T07:57:34;4.57;;;3.78;;
36449;SDS011;22475;51.390;7.180;2023-03-20T08:00:01;7.90;;;3.78;;
36449;SDS011;22475;51.390;7.180;2023-03-20T08:02:28;5.68;;;3.58;;
36449;SDS011;22475;51.390;7.180;2023-03-20T08:04:55;4.53;;;3.65;;
36449;SDS011;22475;51.390;7.180;2023-03-20T08:07:22;7.05;;;3.42;;
36449;SDS011;22475;51.390;7.180;2023-03-20T08:09:49;6.65;;;3.58;;
36449;SDS011;22475;51.390;7.180;2023-03-20T08:12:16;4.10;;;3.22;;
36449;SDS011;22475;51.390;7.180;2023-03-20T08:14:44;3.22;;;2.95;;
36449;SDS011;22475;51.390;7.180;2023-03-20T08:17:11;7.10;;;4.25;;
36449;SDS011;22475;51.390;7.180;2023-03-20T08:19:38;4.22;;;2.88;;
36449;SDS011;22475;51.390;7.180;2023-03-20T08:22:04;5.43;;;2.53;;
36449;SDS011;22475;51.390;7.180;2023-03-20T08:24:31;4.80;;;3.28;;
36449;SDS011;22475;51.390;7.180;2023-03-20T08:26:58;4.63;;;3.90;;
36449;SDS011;22475;51.390;7.180;2023-03-20T08:29:25;4.28;;;3.88;;
36449;SDS011;22475;51.390;7.180;2023-03-20T08:31:53;5.55;;;3.55;;
36449;SDS011;22475;51.390;7.180;2023-03-20T08:34:20;4.38;;;2.63;;
36449;SDS011;22475;51.390;7.180;2023-03-20T08:36:47;5.93;;;3.10;;
36449;SDS011;22475;51.390;7.180;2023-03-20T08:39:13;7.50;;;4.60;;
36449;SDS011;22475;51.390;7.180;2023-03-20T08:41:40;8.82;;;4.38;;
36449;SDS011;22475;51.390;7.180;2023-03-20T08:44:09;6.60;;;4.22;;
36449;SDS011;22475;51.390;7.180;2023-03-20T08:46:36;9.40;;;3.88;;
36449;SDS011;22475;51.390;7.180;2023-03-20T08:49:05;9.32;;;4.15;;
36449;SDS011;22475;51.390;7.180;2023-03-20T08:51:32;6.20;;;3.38;;
36449;SDS011;22475;51.390;7.180;2023-03-20T08:53:58;5.00;;;3.72;;
36449;SDS011;22475;51.390;7.180;2023-03-20T08:56:25;2.97;;;2.75;;
36449;SDS011;22475;51.390;7.180;2023-03-20T08:58:52;4.40;;;2.55;;
36449;SDS011;22475;51.390;7.180;2023-03-20T09:01:19;6.45;;;3.08;;
36449;SDS011;22475;51.390;7.180;2023-03-20T09:03:46;5.18;;;2.50;;
36449;SDS011;22475;51.390;7.180;2023-03-20T09:06:14;4.53;;;3.85;;
36449;SDS011;22475;51.390;7.180;2023-03-20T09:08:41;4.40;;;3.10;;
36449;SDS011;22475;51.390;7.180;2023-03-20T09:11:08;2.40;;;2.20;;
36449;SDS011;22475;51.390;7.180;2023-03-20T09:13:34;4.70;;;2.15;;
36449;SDS011;22475;51.390;7.180;2023-03-20T09:16:01;7.35;;;3.35;;
36449;SDS011;22475;51.390;7.180;2023-03-20T09:18:28;3.95;;;3.03;;
36449;SDS011;22475;51.390;7.180;2023-03-20T09:20:55;3.22;;;2.70;;
36449;SDS011;22475;51.390;7.180;2023-03-20T09:23:23;5.93;;;3.17;;
36449;SDS011;22475;51.390;7.180;2023-03-20T09:25:50;2.90;;;2.47;;
36449;SDS011;22475;51.390;7.180;2023-03-20T09:28:17;5.25;;;2.05;;
36449;SDS011;22475;51.390;7.180;2023-03-20T09:30:43;2.40;;;1.90;;
36449;SDS011;22475;51.390;7.180;2023-03-20T09:33:10;5.15;;;3.33;;
36449;SDS011;22475;51.390;7.180;2023-03-20T09:35:38;2.88;;;1.67;;
36449;SDS011;22475;51.390;7.180;2023-03-20T09:38:06;7.65;;;2.67;;
36449;SDS011;22475;51.390;7.180;2023-03-20T09:40:36;5.65;;;2.67;;
36449;SDS011;22475;51.390;7.180;2023-03-20T09:43:15;3.35;;;3.05;;
36449;SDS011;22475;51.390;7.180;2023-03-20T09:46:12;3.90;;;2.17;;
36449;SDS011;22475;51.390;7.180;2023-03-20T09:48:48;8.73;;;2.88;;
36449;SDS011;22475;51.390;7.180;2023-03-20T09:51:20;4.97;;;2.17;;
36449;SDS011;22475;51.390;7.180;2023-03-20T09:53:58;2.28;;;2.05;;
36449;SDS011;22475;51.390;7.180;2023-03-20T09:56:30;2.78;;;2.30;;
36449;SDS011;22475;51.390;7.180;2023-03-20T09:58:57;6.57;;;3.40;;
36449;SDS011;22475;51.390;7.180;2023-03-20T10:01:31;6.88;;;2.50;;
36449;SDS011;22475;51.390;7.180;2023-03-20T10:04:05;4.25;;;2.55;;
36449;SDS011;22475;51.390;7.180;2023-03-20T10:06:34;1.60;;;1.50;;
36449;SDS011;22475;51.390;7.180;2023-03-20T10:09:00;6.25;;;2.67;;
36449;SDS011;22475;51.390;7.180;2023-03-20T10:11:36;2.95;;;1.90;;
36449;SDS011;22475;51.390;7.180;2023-03-20T10:14:21;2.97;;;1.45;;
36449;SDS011;22475;51.390;7.180;2023-03-20T10:16:57;2.88;;;1.80;;
36449;SDS011;22475;51.390;7.180;2023-03-20T10:19:32;7.22;;;3.25;;
36449;SDS011;22475;51.390;7.180;2023-03-20T10:22:10;6.47;;;2.35;;
36449;SDS011;22475;51.390;7.180;2023-03-20T10:24:47;4.93;;;2.00;;
36449;SDS011;22475;51.390;7.180;2023-03-20T10:27:21;4.95;;;1.80;;
36449;SDS011;22475;51.390;7.180;2023-03-20T10:29:50;2.72;;;1.88;;
36449;SDS011;22475;51.390;7.180;2023-03-20T10:32:28;5.35;;;2.17;;
36449;SDS011;22475;51.390;7.180;2023-03-20T10:35:09;4.20;;;1.58;;
36449;SDS011;22475;51.390;7.180;2023-03-20T10:37:46;5.50;;;1.52;;
36449;SDS011;22475;51.390;7.180;2023-03-20T10:40:25;5.63;;;1.42;;
36449;SDS011;22475;51.390;7.180;2023-03-20T10:42:58;5.05;;;1.92;;
36449;SDS011;22475;51.390;7.180;2023-03-20T10:45:32;2.10;;;1.50;;
36449;SDS011;22475;51.390;7.180;2023-03-20T10:48:05;5.82;;;2.05;;
36449;SDS011;22475;51.390;7.180;2023-03-20T10:50:39;4.68;;;1.63;;
36449;SDS011;22475;51.390;7.180;2023-03-20T10:53:09;3.75;;;1.85;;
36449;SDS011;22475;51.390;7.180;2023-03-20T10:55:48;6.88;;;1.77;;
36449;SDS011;22475;51.390;7.180;2023-03-20T10:58:18;4.32;;;1.45;;
36449;SDS011;22475;51.390;7.180;2023-03-20T11:00:48;1.75;;;1.65;;
36449;SDS011;22475;51.390;7.180;2023-03-20T11:03:20;2.85;;;1.10;;
36449;SDS011;22475;51.390;7.180;2023-03-20T11:05:50;3.80;;;1.60;;
36449;SDS011;22475;51.390;7.180;2023-03-20T11:08:22;5.13;;;1.77;;
36449;SDS011;22475;51.390;7.180;2023-03-20T11:10:57;4.13;;;1.13;;
36449;SDS011;22475;51.390;7.180;2023-03-20T11:13:28;1.65;;;1.55;;
36449;SDS011;22475;51.390;7.180;2023-03-20T11:16:00;5.70;;;1.45;;
36449;SDS011;22475;51.390;7.180;2023-03-20T11:18:35;7.53;;;1.77;;
36449;SDS011;22475;51.390;7.180;2023-03-20T11:21:02;2.08;;;1.10;;
36449;SDS011;22475;51.390;7.180;2023-03-20T11:23:31;1.83;;;1.15;;
36449;SDS011;22475;51.390;7.180;2023-03-20T11:25:59;2.75;;;1.13;;
36449;SDS011;22475;51.390;7.180;2023-03-20T11:28:33;2.45;;;1.17;;
36449;SDS011;22475;51.390;7.180;2023-03-20T11:31:02;1.52;;;0.95;;
36449;SDS011;22475;51.390;7.180;2023-03-20T11:33:32;5.93;;;1.35;;
36449;SDS011;22475;51.390;7.180;2023-03-20T11:36:09;1.55;;;1.45;;
36449;SDS011;22475;51.390;7.180;2023-03-20T11:38:41;1.83;;;0.82;;
36449;SDS011;22475;51.390;7.180;2023-03-20T11:41:15;1.15;;;1.05;;
36449;SDS011;22475;51.390;7.180;2023-03-20T11:43:44;7.10;;;1.25;;
36449;SDS011;22475;51.390;7.180;2023-03-20T11:46:11;7.70;;;1.25;;
36449;SDS011;22475;51.390;7.180;2023-03-20T11:48:39;3.65;;;1.42;;
36449;SDS011;22475;51.390;7.180;2023-03-20T11:51:08;3.03;;;1.23;;
36449;SDS011;22475;51.390;7.180;2023-03-20T11:53:39;5.70;;;1.90;;
36449;SDS011;22475;51.390;7.180;2023-03-20T11:56:20;0.95;;;0.82;;
36449;SDS011;22475;51.390;7.180;2023-03-20T11:58:52;3.00;;;1.30;;
36449;SDS011;22475;51.390;7.180;2023-03-20T12:01:23;3.85;;;1.55;;
36449;SDS011;22475;51.390;7.180;2023-03-20T12:03:51;7.43;;;1.90;;
36449;SDS011;22475;51.390;7.180;2023-03-20T12:06:24;3.80;;;1.23;;
36449;SDS011;22475;51.390;7.180;2023-03-20T12:08:53;6.85;;;1.05;;
36449;SDS011;22475;51.390;7.180;2023-03-20T12:11:30;2.22;;;0.98;;
36449;SDS011;22475;51.390;7.180;2023-03-20T12:14:11;3.60;;;1.33;;
36449;SDS011;22475;51.390;7.180;2023-03-20T12:16:47;1.17;;;0.82;;
36449;SDS011;22475;51.390;7.180;2023-03-20T12:19:18;0.57;;;0.43;;
36449;SDS011;22475;51.390;7.180;2023-03-20T12:21:49;5.65;;;1.50;;
36449;SDS011;22475;51.390;7.180;2023-03-20T12:24:25;0.35;;;0.30;;
36449;SDS011;22475;51.390;7.180;2023-03-20T12:26:59;6.43;;;1.15;;
36449;SDS011;22475;51.390;7.180;2023-03-20T12:29:42;1.40;;;1.10;;
36449;SDS011;22475;51.390;7.180;2023-03-20T12:32:14;3.13;;;1.10;;
36449;SDS011;22475;51.390;7.180;2023-03-20T12:34:45;3.05;;;1.25;;
36449;SDS011;22475;51.390;7.180;2023-03-20T12:37:15;1.17;;;0.80;;
36449;SDS011;22475;51.390;7.180;2023-03-20T12:39:44;3.63;;;1.20;;
36449;SDS011;22475;51.390;7.180;2023-03-20T12:42:16;5.13;;;0.85;;
36449;SDS011;22475;51.390;7.180;2023-03-20T12:44:54;1.88;;;0.80;;
36449;SDS011;22475;51.390;7.180;2023-03-20T12:50:25;3.35;;;1.50;;
36449;SDS011;22475;51.390;7.180;2023-03-20T12:53:00;5.72;;;1.05;;
36449;SDS011;22475;51.390;7.180;2023-03-20T12:55:41;0.77;;;0.65;;
36449;SDS011;22475;51.390;7.180;2023-03-20T12:58:18;3.30;;;1.10;;
36449;SDS011;22475;51.390;7.180;2023-03-20T13:00:54;9.10;;;1.17;;
36449;SDS011;22475;51.390;7.180;2023-03-20T13:03:35;1.88;;;0.63;;
36449;SDS011;22475;51.390;7.180;2023-03-20T13:06:18;1.00;;;0.75;;
36449;SDS011;22475;51.390;7.180;2023-03-20T13:08:53;1.10;;;0.57;;
36449;SDS011;22475;51.390;7.180;2023-03-20T13:11:34;3.85;;;1.00;;
36449;SDS011;22475;51.390;7.180;2023-03-20T13:14:07;4.60;;;1.17;;
36449;SDS011;22475;51.390;7.180;2023-03-20T13:16:44;2.95;;;1.10;;
36449;SDS011;22475;51.390;7.180;2023-03-20T13:19:17;4.93;;;0.95;;
36449;SDS011;22475;51.390;7.180;2023-03-20T13:21:52;3.70;;;0.85;;
36449;SDS011;22475;51.390;7.180;2023-03-20T13:24:34;1.35;;;0.82;;
36449;SDS011;22475;51.390;7.180;2023-03-20T13:27:12;4.25;;;1.00;;
36449;SDS011;22475;51.390;7.180;2023-03-20T13:29:49;8.55;;;1.25;;
36449;SDS011;22475;51.390;7.180;2023-03-20T13:32:23;3.05;;;0.95;;
36449;SDS011;22475;51.390;7.180;2023-03-20T13:35:07;4.05;;;1.00;;
36449;SDS011;22475;51.390;7.180;2023-03-20T13:37:46;1.65;;;0.57;;
36449;SDS011;22475;51.390;7.180;2023-03-20T13:40:18;0.63;;;0.63;;
36449;SDS011;22475;51.390;7.180;2023-03-20T13:42:49;1.88;;;1.02;;
36449;SDS011;22475;51.390;7.180;2023-03-20T13:45:22;3.25;;;1.20;;
36449;SDS011;22475;51.390;7.180;2023-03-20T13:47:56;2.30;;;0.60;;
36449;SDS011;22475;51.390;7.180;2023-03-20T13:50:32;3.30;;;0.63;;
36449;SDS011;22475;51.390;7.180;2023-03-20T13:53:07;3.50;;;0.93;;
36449;SDS011;22475;51.390;7.180;2023-03-20T13:55:40;3.22;;;1.42;;
36449;SDS011;22475;51.390;7.180;2023-03-20T13:58:21;4.22;;;0.70;;
36449;SDS011;22475;51.390;7.180;2023-03-20T14:00:54;2.63;;;0.98;;
36449;SDS011;22475;51.390;7.180;2023-03-20T14:03:31;3.80;;;0.98;;
36449;SDS011;22475;51.390;7.180;2023-03-20T14:06:00;2.40;;;1.25;;
36449;SDS011;22475;51.390;7.180;2023-03-20T14:08:42;2.35;;;1.35;;
36449;SDS011;22475;51.390;7.180;2023-03-20T14:11:14;0.80;;;0.70;;
36449;SDS011;22475;51.390;7.180;2023-03-20T14:13:57;3.88;;;0.77;;
36449;SDS011;22475;51.390;7.180;2023-03-20T14:16:28;2.13;;;0.80;;
36449;SDS011;22475;51.390;7.180;2023-03-20T14:19:06;1.40;;;0.68;;
36449;SDS011;22475;51.390;7.180;2023-03-20T14:21:43;3.20;;;0.75;;
36449;SDS011;22475;51.390;7.180;2023-03-20T14:24:11;2.73;;;1.23;;
36449;SDS011;22475;51.390;7.180;2023-03-20T14:26:41;1.33;;;0.60;;
36449;SDS011;22475;51.390;7.180;2023-03-20T14:29:19;1.40;;;0.85;;
36449;SDS011;22475;51.390;7.180;2023-03-20T14:32:02;5.88;;;0.95;;
36449;SDS011;22475;51.390;7.180;2023-03-20T14:34:46;6.38;;;0.70;;
36449;SDS011;22475;51.390;7.180;2023-03-20T14:37:27;6.22;;;1.55;;
36449;SDS011;22475;51.390;7.180;2023-03-20T14:40:00;5.03;;;1.73;;
36449;SDS011;22475;51.390;7.180;2023-03-20T14:42:38;3.17;;;1.52;;
36449;SDS011;22475;51.390;7.180;2023-03-20T14:45:34;1.33;;;0.60;;
36449;SDS011;22475;51.390;7.180;2023-03-20T14:48:08;2.50;;;0.95;;
36449;SDS011;22475;51.390;7.180;2023-03-20T14:50:50;4.78;;;1.52;;
36449;SDS011;22475;51.390;7.180;2023-03-20T14:53:24;5.10;;;1.33;;
36449;SDS011;22475;51.390;7.180;2023-03-20T14:55:57;4.68;;;1.08;;
36449;SDS011;22475;51.390;7.180;2023-03-20T14:58:34;1.70;;;0.77;;
36449;SDS011;22475;51.390;7.180;2023-03-20T15:01:43;2.70;;;0.90;;
36449;SDS011;22475;51.390;7.180;2023-03-20T15:04:28;1.27;;;0.80;;
36449;SDS011;22475;51.390;7.180;2023-03-20T15:06:59;2.13;;;1.35;;
36449;SDS011;22475;51.390;7.180;2023-03-20T15:11:57;5.45;;;1.58;;
36449;SDS011;22475;51.390;7.180;2023-03-20T15:14:28;2.10;;;1.10;;
36449;SDS011;22475;51.390;7.180;2023-03-20T15:16:59;2.42;;;1.88;;
36449;SDS011;22475;51.390;7.180;2023-03-20T15:19:27;5.88;;;1.90;;
36449;SDS011;22475;51.390;7.180;2023-03-20T15:21:54;2.83;;;1.35;;
36449;SDS011;22475;51.390;7.180;2023-03-20T15:24:23;2.60;;;0.90;;
36449;SDS011;22475;51.390;7.180;2023-03-20T15:26:52;7.30;;;1.87;;
36449;SDS011;22475;51.390;7.180;2023-03-20T15:29:20;5.88;;;1.70;;